Sunday, January 20, 2019, 1:56 AM EST
Back to Local

KSBY, Salisbury-wicomico Cty Reg

Location: Salisbury, MD, United States Lat: 38.333
Local Time: 1:56 AM EST ( 6:56 GMT) Lon: -75.5
Time Zone: US/Eastern Elev: 52 ft

Show me the last for .
Show Decoded

2019-01-20 00:54 METAR KSBY 200554Z AUTO 15007KT 9SM OVC004 12/12 A2963 RMK AO2 SLP036 60000
                 T01170117 10117 20067 56041 =
2019-01-20 00:32 METAR KSBY 200532Z AUTO 15006KT 10SM OVC004 12/12 A2965 RMK AO2 T01170117 =
2019-01-19 23:54 METAR KSBY 200454Z AUTO 14007KT 10SM OVC005 11/11 A2967 RMK AO2 SLP049 T01110111
                 401111022 =
2019-01-19 22:54 METAR KSBY 200354Z AUTO 13011KT 10SM OVC005 10/10 A2970 RMK AO2 SLP060 T01000100
                 =
2019-01-19 22:01 METAR KSBY 200301Z 12013G22KT 10SM OVC008 09/08 A2975 RMK AO2 CIG 007V011
                 T00890078 =
2019-01-19 21:54 METAR KSBY 200254Z 12018G22KT 10SM OVC010 09/08 A2975 RMK AO2 PK WND 11028/0156
                 SLP077 60000 T00890078 56059 =
2019-01-19 21:34 METAR KSBY 200234Z 12016KT 10SM OVC010 09/07 A2976 RMK AO2 PK WND 11028/0156
                 T00890072 =
2019-01-19 20:54 METAR KSBY 200154Z 11017G24KT 10SM BKN019 OVC030 08/06 A2980 RMK AO2 PRESFR
                 SLP094 T00830061 =
2019-01-19 20:41 METAR KSBY 200141Z 12015G24KT 10SM BKN021 OVC029 08/06 A2982 RMK AO2 T00830061 =
2019-01-19 19:54 METAR KSBY 200054Z 11014KT 10SM FEW026 OVC033 07/06 A2987 RMK AO2 RAB2358E08
                 SLP119 P0000 T00720061 =
2019-01-19 19:46 METAR KSBY 200046Z 12014KT 10SM SCT026 OVC035 07/06 A2988 RMK AO2 RAB2358E08
                 P0000 T00720061 =
2019-01-19 19:22 METAR KSBY 200022Z 11012KT 8SM BKN026 BKN032 OVC038 07/06 A2991 RMK AO2
                 RAB2358E08 P0000 T00670061 =
2019-01-19 18:54 METAR KSBY 192354Z 10012KT 5SM BR BKN034 OVC045 07/06 A2993 RMK AO2 RAB07E17
                 SLP137 P0000 60000 T00670056 10078 20067 56041 =
2019-01-19 17:54 METAR KSBY 192254Z 12010KT 10SM SCT040 OVC050 07/04 A2996 RMK AO2 SLP149
                 T00720044 =
2019-01-19 16:54 METAR KSBY 192154Z 11010KT 10SM OVC055 07/04 A2999 RMK AO2 SLP158 T00720044 =
2019-01-19 15:54 METAR KSBY 192054Z 13008KT 10SM BKN050 OVC060 08/04 A3005 RMK AO2 SLP177
                 T00780039 58025 =
2019-01-19 14:54 METAR KSBY 191954Z 13014KT 10SM OVC050 07/04 A3007 RMK AO2 SLP185 T00720039 =
2019-01-19 13:54 METAR KSBY 191854Z 12011KT 10SM FEW022 OVC050 07/03 A3011 RMK AO2 SLP198
                 T00670028 =
2019-01-19 12:54 METAR KSBY 191754Z 10010KT 10SM SCT022 OVC055 07/03 A3012 RMK AO2 SLP202
                 T00670028 10067 21006 58031 =
2019-01-19 12:11 METAR KSBY 191711Z 09011KT 8SM SCT022 OVC055 07/03 A3014 RMK AO2 T00670028 =
2019-01-19 11:54 METAR KSBY 191654Z 10008KT 6SM BR BKN022 OVC050 06/03 A3017 RMK AO2 PRESFR
                 SLP220 T00560033 =
2019-01-19 10:54 METAR KSBY 191554Z 06004KT 4SM BR OVC050 04/03 A3021 RMK AO2 SLP234 T00440028 =
2019-01-19 10:13 METAR KSBY 191513Z 09006KT 4SM BR OVC050 04/03 A3021 RMK AO2 T00390028 =
2019-01-19 10:05 METAR KSBY 191505Z 08006KT 2 1/2SM BR OVC050 04/03 A3021 RMK AO2 T00390028 =
2019-01-19 09:54 METAR KSBY 191454Z 06005KT 3SM BR OVC050 03/02 A3021 RMK AO2 SLP233 T00330022
                 51004 =
2019-01-19 09:20 METAR KSBY 191420Z 07005KT 3SM BR OVC050 03/02 A3021 RMK AO2 T00280017 =
2019-01-19 08:54 METAR KSBY 191354Z 06004KT 2SM BR OVC049 02/02 A3021 RMK AO2 SLP233 T00170017 =
2019-01-19 08:51 METAR KSBY 191351Z 06004KT 3SM BR OVC049 02/01 A3021 RMK AO2 =
2019-01-19 08:13 METAR KSBY 191313Z 07003KT 2SM BR OVC049 01/01 A3021 RMK AO2 T00110006 =
2019-01-19 07:54 METAR KSBY 191254Z 07003KT 1 3/4SM BR OVC049 01/00 A3020 RMK AO2 SLP229
                 T00060000 =
2019-01-19 07:50 METAR KSBY 191250Z 00000KT 1 3/4SM BR OVC049 01/01 A3020 RMK AO2 =
2019-01-19 07:21 METAR KSBY 191221Z 00000KT 2SM BR OVC048 00/00 A3021 RMK AO2 T00000000 =
2019-01-19 06:54 METAR KSBY 191154Z 00000KT 3SM BR OVC048 M01/M01 A3020 RMK AO2 SLP229 I6000
                 T10061006 10000 21022 56002 =
2019-01-19 05:54 METAR KSBY 191054Z 00000KT 3SM BR OVC049 M01/M01 A3020 RMK AO2 SLP231 I1000
                 T10111011 =
2019-01-19 05:37 METAR KSBY 191037Z AUTO 00000KT 3SM BR OVC049 M02/M02 A3021 RMK AO2 I1000
                 T10171017 =
2019-01-19 05:27 METAR KSBY 191027Z AUTO 00000KT 1 1/4SM BR FEW008 OVC050 M02/M02 A3020 RMK AO2
                 I1000 T10171017 =
2019-01-19 05:14 METAR KSBY 191014Z AUTO 00000KT 2SM BR FEW008 BKN050 M02/M02 A3019 RMK AO2
                 T10221022 =
2019-01-19 04:54 METAR KSBY 190954Z AUTO 00000KT 3/4SM BR FEW007 BKN050 M02/M02 A3019 RMK AO2
                 SLP226 T10221022 =
2019-01-19 04:41 METAR KSBY 190941Z AUTO 00000KT 1 3/4SM BR FEW004 BKN050 M02/M02 A3019 RMK AO2
                 T10221022 =
2019-01-19 04:33 METAR KSBY 190933Z AUTO 00000KT 3SM BR FEW004 BKN050 M02/M02 A3019 RMK AO2
                 T10171017 =
2019-01-19 04:27 METAR KSBY 190927Z AUTO 00000KT 1SM BR FEW004 OVC050 M02/M02 A3019 RMK AO2
                 T10171017 =
2019-01-19 04:20 METAR KSBY 190920Z AUTO 00000KT 1/4SM FZFG FEW002 BKN050 M02/M02 A3020 RMK AO2
                 T10171017 =
2019-01-19 04:10 METAR KSBY 190910Z AUTO 00000KT 3/4SM BR BKN050 M01/M02 A3020 RMK AO2 T10111017
                 =
2019-01-19 03:54 METAR KSBY 190854Z AUTO 00000KT 2SM BR FEW050 M01/M02 A3020 RMK AO2 SLP231
                 T10111017 58000 =
2019-01-19 02:54 METAR KSBY 190754Z AUTO 00000KT 3SM BR OVC055 M01/M01 A3022 RMK AO2 SLP235
                 T10061011 =

Support USWX by starting your Amazon purchase here.